Time;durP1;ratioP1;P1;durP2;ratioP2;P2;SDS_P1;SDS_P2;PMS_P1;PMS_P2;Temp;Humidity;BMP_temperature;BMP_pressure;BME280_temperature;BME280_humidity;BME280_pressure;Samples;Min_cycle;Max_cycle;Signal;HPM_P1;HPM_P2
2022/02/25 00:00:37;;;;;;;22.20;9.48;;;;;;;1.40;75.23;92556.91;4993110;28;20068;-88
2022/02/25 00:03:14;;;;;;;21.92;9.40;;;;;;;1.47;75.66;92563.72;4992589;28;20042;-88
2022/02/25 00:05:44;;;;;;;25.35;10.18;;;;;;;1.72;75.11;92595.19;4976573;28;20039;-87
2022/02/25 00:08:47;;;;;;;;;;;;;;;;;;;;;
2022/02/25 00:11:17;;;;;;;23.73;9.80;;;;;;;1.38;74.92;92555.56;4983797;28;20047;-88
2022/02/25 00:14:10;;;;;;;20.55;9.00;;;;;;;1.26;74.75;92555.56;4988434;28;20038;-88
2022/02/25 00:17:21;;;;;;;21.15;9.55;;;;;;;1.23;74.88;92546.47;4972924;28;20053;-87
2022/02/25 00:19:53;;;;;;;23.58;10.30;;;;;;;1.29;75.24;92560.28;4973489;28;20038;-88
2022/02/25 00:22:23;;;;;;;26.63;10.43;;;;;;;1.21;75.44;92553.66;4973329;28;20424;-88
2022/02/25 00:25:04;;;;;;;;;;;;;;;;;;;;;
2022/02/25 00:28:06;;;;;;;22.15;10.63;;;;;;;1.15;75.72;92548.63;4993114;28;20042;-87
2022/02/25 00:30:47;;;;;;;20.95;9.82;;;;;;;1.35;75.31;92585.19;4991426;28;20209;-88
2022/02/25 00:33:28;;;;;;;;;;;;;;;;;;;;;
2022/02/25 00:36:04;;;;;;;25.45;11.18;;;;;;;0.98;74.31;92533.84;4988041;28;20089;-88
2022/02/25 00:38:45;;;;;;;22.48;10.45;;;;;;;1.28;74.38;92586.28;4972056;28;20514;-87
2022/02/25 00:41:19;;;;;;;23.60;10.52;;;;;;;1.06;74.99;92562.88;4986564;28;20035;-88
2022/02/25 00:43:52;;;;;;;22.27;10.20;;;;;;;1.09;74.55;92565.03;4974153;28;20046;-88
2022/02/25 00:46:26;;;;;;;26.35;11.07;;;;;;;1.30;75.55;92597.16;4991713;28;20049;-88
2022/02/25 00:49:20;;;;;;;;;;;;;;;;;;;;;
2022/02/25 00:52:11;;;;;;;27.98;11.30;;;;;;;1.09;75.00;92565.81;4990491;28;20042;-88
2022/02/25 00:54:39;;;;;;;25.58;11.35;;;;;;;0.99;75.45;92542.38;4977147;28;20105;-88
2022/02/25 00:57:47;;;;;;;29.38;12.05;;;;;;;1.14;75.62;92572.84;4990803;28;20510;-87
2022/02/25 01:00:22;;;;;;;24.25;11.30;;;;;;;0.95;75.24;92544.63;5006624;28;20066;-89
2022/02/25 01:02:57;;;;;;;30.00;11.82;;;;;;;0.91;75.64;92547.88;4989952;28;20050;-88
2022/02/25 01:05:42;;;;;;;;;;;;;;;;;;;;;
2022/02/25 01:08:30;;;;;;;29.35;12.18;;;;;;;1.17;75.71;92590.44;4991818;28;20400;-88
2022/02/25 01:11:17;;;;;;;26.00;11.75;;;;;;;0.82;75.77;92547.44;4990847;28;20046;-87
2022/02/25 01:14:00;;;;;;;28.75;13.43;;;;;;;1.10;75.66;92582.03;4977332;28;20045;-89
2022/02/25 01:16:44;;;;;;;29.45;13.13;;;;;;;0.94;76.22;92563.66;4990933;28;20034;-88
2022/02/25 01:19:15;;;;;;;30.95;11.93;;;;;;;1.22;75.71;92599.09;4990764;28;20129;-87
2022/02/25 01:21:58;;;;;;;33.83;12.65;;;;;;;0.90;75.67;92551.47;4975761;28;20246;-87
2022/02/25 01:24:47;;;;;;;32.13;12.25;;;;;;;0.78;75.86;92528.28;4984549;28;20050;-88
2022/02/25 01:27:35;;;;;;;;;;;;;;;;;;;;;
2022/02/25 01:30:33;;;;;;;32.95;12.07;;;;;;;0.98;75.80;92558.84;4994321;28;20046;-89
2022/02/25 01:33:10;;;;;;;;;;;;;;;;;;;;;
2022/02/25 01:36:06;;;;;;;;;;;;;;;;;;;;;
2022/02/25 01:39:05;;;;;;;;;;;;;;;;;;;;;
2022/02/25 01:41:45;;;;;;;27.80;12.00;;;;;;;0.88;75.24;92548.31;4993642;28;20122;-87
2022/02/25 01:44:34;;;;;;;31.48;11.93;;;;;;;0.70;75.24;92526.03;4976828;28;20129;-87
2022/02/25 01:47:43;;;;;;;;;;;;;;;;;;;;;
2022/02/25 01:50:24;;;;;;;27.85;12.38;;;;;;;0.91;74.85;92558.97;4959119;28;20058;-87
2022/02/25 01:53:06;;;;;;;31.33;11.65;;;;;;;0.79;74.78;92545.31;4977674;28;20116;-88
2022/02/25 01:55:47;;;;;;;33.63;12.60;;;;;;;0.62;74.61;92515.06;4991828;28;20121;-88
2022/02/25 01:58:27;;;;;;;33.92;13.05;;;;;;;0.67;75.23;92523.91;4973842;28;20050;-87
2022/02/25 02:01:09;;;;;;;30.42;12.38;;;;;;;0.62;75.40;92509.13;4976800;28;20035;-87
2022/02/25 02:03:41;;;;;;;28.45;12.48;;;;;;;0.64;74.95;92522.56;4994834;28;20046;-87
2022/02/25 02:06:11;;;;;;;31.77;13.40;;;;;;;0.65;74.93;92523.34;4993962;28;20050;-87
2022/02/25 02:08:58;;;;;;;32.92;12.90;;;;;;;0.85;75.21;92559.09;4996269;28;20043;-86
2022/02/25 02:11:40;;;;;;;25.98;11.13;;;;;;;0.94;75.51;92571.41;4985241;28;20053;-88
2022/02/25 02:14:23;;;;;;;29.15;11.90;;;;;;;0.69;75.35;92532.19;4976372;28;20395;-88
2022/02/25 02:17:16;;;;;;;;;;;;;;;;;;;;;
2022/02/25 02:19:47;;;;;;;32.47;12.60;;;;;;;0.61;75.83;92528.97;4996964;28;20039;-87
2022/02/25 02:22:26;;;;;;;34.28;13.27;;;;;;;0.97;76.06;92575.34;4995379;28;20035;-87
2022/02/25 02:25:04;;;;;;;27.77;12.38;;;;;;;0.77;76.19;92545.53;5010637;28;20063;-87
2022/02/25 02:30:22;;;;;;;31.13;11.63;;;;;;;0.84;75.91;92553.16;4995738;28;20045;-87
2022/02/25 02:32:58;;;;;;;;;;;;;;;;;;;;;
2022/02/25 02:35:23;;;;;;;26.98;11.23;;;;;;;0.74;76.32;92540.03;4991000;28;20046;-88
2022/02/25 02:37:49;;;;;;;32.30;13.05;;;;;;;0.90;76.39;92562.56;4978504;28;20042;-87
2022/02/25 02:40:18;;;;;;;30.25;12.60;;;;;;;0.74;76.12;92524.56;4994561;28;20050;-87
2022/02/25 02:42:45;;;;;;;32.10;13.00;;;;;;;0.65;76.21;92521.53;4965251;28;20438;-87
2022/02/25 02:45:15;;;;;;;34.28;13.50;;;;;;;0.71;76.61;92525.03;4975916;28;20552;-87
2022/02/25 02:47:48;;;;;;;26.70;12.63;;;;;;;0.56;76.86;92487.63;4974172;28;20669;-87
2022/02/25 02:50:17;;;;;;;27.40;12.88;;;;;;;0.48;77.11;92475.06;4974320;28;20054;-87
2022/02/25 02:53:11;;;;;;;31.85;12.57;;;;;;;0.75;75.70;92514.06;4982246;28;20109;-87
2022/02/25 02:56:03;;;;;;;26.50;12.32;;;;;;;0.55;75.39;92478.31;4993027;28;20038;-88
2022/02/25 02:58:55;;;;;;;26.63;12.18;;;;;;;0.61;76.29;92492.09;4994707;28;20050;-89
2022/02/25 03:01:26;;;;;;;26.92;13.23;;;;;;;0.66;76.40;92488.84;4981005;28;20055;-87
2022/02/25 03:04:04;;;;;;;;;;;;;;;;;;;;;
2022/02/25 03:06:47;;;;;;;28.83;12.32;;;;;;;0.87;75.79;92521.00;4976588;28;20039;-88
2022/02/25 03:09:50;;;;;;;31.67;13.40;;;;;;;0.46;76.27;92453.91;4958307;28;20142;-87
2022/02/25 03:12:31;;;;;;;;;;;;;;;;;;;;;
2022/02/25 03:15:08;;;;;;;31.25;13.20;;;;;;;0.53;75.01;92459.72;4995201;28;20034;-87
2022/02/25 03:17:46;;;;;;;30.08;11.30;;;;;;;0.62;74.64;92471.25;4993527;28;20239;-87
2022/02/25 03:20:33;;;;;;;30.13;11.73;;;;;;;0.82;73.83;92501.03;4994450;28;20065;-87
2022/02/25 03:23:16;;;;;;;23.27;9.77;;;;;;;0.61;73.26;92477.44;4994951;28;20057;-87
2022/02/25 03:25:51;;;;;;;24.23;10.75;;;;;;;0.47;73.02;92455.47;4993837;28;20042;-87
2022/02/25 03:28:33;;;;;;;;;;;;;;;;;;;;;
2022/02/25 03:31:39;;;;;;;;;;;;;;;;;;;;;
2022/02/25 03:34:40;;;;;;;26.15;10.85;;;;;;;0.54;72.79;92461.31;4995203;28;20034;-87
2022/02/25 03:37:14;;;;;;;24.30;9.65;;;;;;;0.40;73.09;92442.69;4993018;28;20049;-87
2022/02/25 03:40:01;;;;;;;22.80;9.88;;;;;;;0.66;73.04;92483.69;4974440;28;20047;-87
2022/02/25 03:43:15;;;;;;;25.02;10.73;;;;;;;0.40;72.30;92444.50;4974196;28;20030;-87
2022/02/25 03:46:06;;;;;;;22.85;10.05;;;;;;;0.41;72.09;92446.09;4959286;28;20070;-89
2022/02/25 03:48:40;;;;;;;21.08;9.13;;;;;;;0.69;71.83;92480.66;4974616;28;20047;-87
2022/02/25 03:51:31;;;;;;;19.02;9.60;;;;;;;0.41;71.15;92433.97;4974657;28;20492;-87
2022/02/25 03:54:02;;;;;;;20.67;8.73;;;;;;;0.56;70.71;92459.28;4975564;28;20133;-87
2022/02/25 03:56:38;;;;;;;26.38;9.30;;;;;;;0.56;70.29;92461.88;4958970;28;20047;-89
2022/02/25 03:59:40;;;;;;;19.30;8.48;;;;;;;0.41;69.72;92433.22;4982689;28;20057;-87
2022/02/25 04:02:16;;;;;;;21.05;8.25;;;;;;;0.41;69.64;92425.47;4980966;28;20262;-88
2022/02/25 04:05:14;;;;;;;23.03;9.00;;;;;;;0.61;68.59;92448.31;4992507;28;20353;-88
2022/02/25 04:07:48;;;;;;;26.48;9.05;;;;;;;0.73;68.74;92463.75;4976309;28;20043;-88
2022/02/25 04:10:36;;;;;;;;;;;;;;;;;;;;;
2022/02/25 04:13:28;;;;;;;15.90;7.53;;;;;;;0.89;67.61;92493.97;4993287;28;20125;-87
2022/02/25 04:15:59;;;;;;;16.83;7.70;;;;;;;0.48;67.29;92436.44;4992914;28;20046;-87
2022/02/25 04:18:38;;;;;;;;;;;;;;;;;;;;;
2022/02/25 04:21:29;;;;;;;;;;;;;;;;;;;;;
2022/02/25 04:24:05;;;;;;;20.00;8.03;;;;;;;0.44;67.01;92443.03;4989501;28;20038;-87
2022/02/25 04:26:41;;;;;;;21.65;8.48;;;;;;;0.55;67.00;92457.72;4987840;28;20035;-87
2022/02/25 04:29:25;;;;;;;21.70;8.52;;;;;;;0.42;67.36;92439.91;4989546;28;20042;-87
2022/02/25 04:32:32;;;;;;;;;;;;;;;;;;;;;
2022/02/25 04:35:31;;;;;;;25.70;9.65;;;;;;;0.44;68.06;92440.47;4978103;28;20093;-88
2022/02/25 04:38:13;;;;;;;21.95;9.57;;;;;;;0.50;68.43;92447.31;4989599;28;20039;-87
2022/02/25 04:40:44;;;;;;;22.75;9.82;;;;;;;0.64;67.97;92471.03;4988491;28;20042;-91
2022/02/25 04:43:22;;;;;;;22.60;8.85;;;;;;;0.72;68.41;92482.78;4988473;28;20038;-88
2022/02/25 04:46:01;;;;;;;23.35;8.98;;;;;;;0.50;68.27;92452.47;4992308;28;20046;-88
2022/02/25 04:48:41;;;;;;;20.40;8.73;;;;;;;0.45;67.95;92449.78;4977117;28;20049;-88
2022/02/25 04:51:29;;;;;;;;;;;;;;;;;;;;;
2022/02/25 04:54:08;;;;;;;;;;;;;;;;;;;;;
2022/02/25 04:56:48;;;;;;;21.42;8.85;;;;;;;0.70;67.58;92490.75;4999154;28;20042;-87
2022/02/25 04:59:28;;;;;;;21.00;9.10;;;;;;;0.41;67.19;92446.84;4990267;28;20038;-89
2022/02/25 05:02:16;;;;;;;;;;;;;;;;;;;;;
2022/02/25 05:04:57;;;;;;;22.58;8.77;;;;;;;0.47;67.10;92450.31;4984955;28;20073;-88
2022/02/25 05:08:02;;;;;;;21.70;9.20;;;;;;;0.52;67.46;92463.31;4974966;28;20035;-88
2022/02/25 05:10:43;;;;;;;24.58;9.80;;;;;;;0.59;67.52;92469.13;4990901;28;20270;-87
2022/02/25 05:13:56;;;;;;;;;;;;;;;;;;;;;
2022/02/25 05:22:18;;;;;;;21.52;9.00;;;;;;;0.79;67.96;92483.47;4988840;28;20038;-87
2022/02/25 05:24:56;;;;;;;21.38;8.98;;;;;;;0.49;67.55;92438.00;5000467;28;20044;-86
2022/02/25 05:27:27;;;;;;;19.80;8.57;;;;;;;0.59;67.47;92451.09;4986932;28;20038;-88
2022/02/25 05:30:23;;;;;;;21.00;8.23;;;;;;;0.78;67.25;92474.94;4988502;28;20041;-87
2022/02/25 05:32:54;;;;;;;23.85;9.38;;;;;;;0.72;67.43;92472.47;4988520;28;20031;-87
2022/02/25 05:35:28;;;;;;;23.00;8.35;;;;;;;0.77;67.89;92478.53;4972151;28;20062;-87
2022/02/25 05:38:02;;;;;;;24.58;9.25;;;;;;;0.63;67.52;92464.31;5005151;28;20089;-87
2022/02/25 05:40:33;;;;;;;21.90;8.48;;;;;;;0.49;67.80;92439.78;4978094;28;20030;-87
2022/02/25 05:43:22;;;;;;;21.58;7.88;;;;;;;0.41;67.40;92433.22;4991058;28;20050;-88
2022/02/25 05:45:56;;;;;;;18.40;6.93;;;;;;;0.96;65.66;92506.75;4994760;28;20038;-90
2022/02/25 05:48:36;;;;;;;24.92;8.60;;;;;;;0.82;65.95;92476.06;4976655;28;20165;-87
2022/02/25 05:51:20;;;;;;;20.15;7.32;;;;;;;0.73;65.41;92453.44;4974420;28;20141;-89
2022/02/25 05:53:56;;;;;;;13.02;5.63;;;;;;;1.11;65.83;92516.59;4986899;28;20034;-93
2022/02/25 05:56:52;;;;;;;14.82;5.80;;;;;;;1.08;65.63;92517.03;4984520;28;20039;-87
2022/02/25 05:59:20;;;;;;;13.35;5.78;;;;;;;0.98;64.53;92492.63;4975560;28;20049;-85
2022/02/25 06:01:46;;;;;;;18.38;6.60;;;;;;;1.13;64.51;92506.84;4958867;28;20409;-86
2022/02/25 06:04:14;;;;;;;11.55;4.18;;;;;;;1.18;63.90;92504.34;4994699;28;20127;-87
2022/02/25 06:06:39;;;;;;;11.40;4.20;;;;;;;1.03;63.37;92481.63;4977982;28;20045;-86
2022/02/25 06:09:05;;;;;;;15.25;5.85;;;;;;;1.25;63.37;92502.44;4990564;28;20041;-86
2022/02/25 06:11:32;;;;;;;19.10;7.80;;;;;;;1.22;64.51;92492.59;4987646;28;20355;-85
2022/02/25 06:14:00;;;;;;;19.85;7.00;;;;;;;1.40;64.75;92513.03;4962658;28;20031;-87
2022/02/25 06:16:26;;;;;;;18.02;7.10;;;;;;;1.38;64.56;92502.16;4983827;28;20489;-87
2022/02/25 06:18:52;;;;;;;19.42;7.70;;;;;;;1.36;64.60;92501.63;4975535;28;20558;-85
2022/02/25 06:21:18;;;;;;;22.83;8.65;;;;;;;1.70;64.11;92527.53;4976366;28;20039;-85
2022/02/25 06:23:43;;;;;;;21.52;8.63;;;;;;;1.68;64.33;92508.91;4975128;28;20405;-87
2022/02/25 06:26:09;;;;;;;21.15;8.75;;;;;;;2.56;62.99;92537.72;4961147;28;20054;-85
2022/02/25 06:28:35;;;;;;;16.13;6.57;;;;;;;4.30;57.42;92526.88;4990799;28;20452;-86
2022/02/25 06:31:01;;;;;;;14.82;5.85;;;;;;;5.87;51.02;92524.66;4996866;28;20031;-86
2022/02/25 06:33:27;;;;;;;7.63;3.30;;;;;;;7.34;47.36;92534.59;4979952;28;20030;-86
2022/02/25 06:35:52;;;;;;;7.93;2.42;;;;;;;8.70;42.76;92539.44;4981016;28;20046;-86
2022/02/25 06:38:18;;;;;;;5.55;2.42;;;;;;;9.76;39.80;92507.31;4983407;28;20026;-87
2022/02/25 06:40:44;;;;;;;3.70;1.80;;;;;;;11.12;35.75;92521.63;4982919;28;20070;-88
2022/02/25 06:43:09;;;;;;;5.28;2.00;;;;;;;12.22;35.49;92532.16;4981334;28;20472;-88
2022/02/25 06:45:37;;;;;;;4.78;1.98;;;;;;;13.33;32.85;92529.94;4991748;28;20050;-87
2022/02/25 06:48:03;;;;;;;6.85;2.38;;;;;;;14.42;31.07;92530.44;5003521;28;20054;-86
2022/02/25 06:50:29;;;;;;;4.55;2.00;;;;;;;15.05;28.50;92544.88;4959403;28;20463;-86
2022/02/25 06:52:55;;;;;;;2.88;1.67;;;;;;;15.75;27.22;92521.00;4976975;28;20118;-86
2022/02/25 06:55:20;;;;;;;4.03;1.90;;;;;;;16.77;24.78;92543.72;4990335;28;20035;-87
2022/02/25 06:57:46;;;;;;;3.60;1.73;;;;;;;17.36;24.24;92548.09;4974465;28;20039;-86
2022/02/25 07:00:16;;;;;;;5.90;1.98;;;;;;;18.27;23.26;92553.31;4975912;28;20063;-87
2022/02/25 07:02:42;;;;;;;3.53;1.55;;;;;;;18.88;22.02;92544.53;4977558;28;20530;-86
2022/02/25 07:05:08;;;;;;;3.08;1.40;;;;;;;19.12;21.17;92553.53;4993404;28;20039;-86
2022/02/25 07:07:34;;;;;;;4.57;1.85;;;;;;;19.76;20.67;92551.81;4995085;28;20050;-86
2022/02/25 07:10:00;;;;;;;2.83;1.38;;;;;;;20.64;18.70;92558.81;4991110;28;20046;-88
2022/02/25 07:12:26;;;;;;;4.00;1.58;;;;;;;21.27;17.93;92537.31;4974639;28;20039;-86
2022/02/25 07:14:52;;;;;;;3.95;1.40;;;;;;;22.01;17.85;92552.34;4974351;28;20047;-86
2022/02/25 07:17:17;;;;;;;2.08;1.20;;;;;;;22.34;16.27;92551.00;4983519;28;20039;-87
2022/02/25 07:19:43;;;;;;;5.00;1.45;;;;;;;22.38;16.31;92557.16;5010088;28;20042;-87
2022/02/25 07:22:09;;;;;;;3.22;1.40;;;;;;;22.41;16.33;92553.78;4961953;28;20133;-87
2022/02/25 07:24:34;;;;;;;3.03;1.42;;;;;;;23.14;15.93;92557.09;4972782;28;20457;-87
2022/02/25 07:27:02;;;;;;;2.92;1.35;;;;;;;24.40;14.69;92567.16;4988885;28;20089;-88
2022/02/25 07:29:28;;;;;;;1.98;1.10;;;;;;;24.63;14.26;92567.00;4972609;28;20039;-87
2022/02/25 07:31:54;;;;;;;2.97;1.60;;;;;;;24.65;13.97;92558.56;4973737;28;20105;-87
2022/02/25 07:34:19;;;;;;;1.60;1.00;;;;;;;24.90;13.68;92556.06;5006589;28;20389;-87
2022/02/25 07:36:45;;;;;;;1.80;1.02;;;;;;;25.09;13.16;92561.13;5008113;28;20369;-89
2022/02/25 07:39:10;;;;;;;3.05;1.08;;;;;;;26.00;12.55;92532.75;4992135;28;20047;-87
2022/02/25 07:41:36;;;;;;;1.42;1.00;;;;;;;26.17;12.69;92564.97;4976248;28;20117;-87
2022/02/25 07:44:02;;;;;;;1.23;0.80;;;;;;;26.54;12.17;92558.44;4990271;28;20042;-87
2022/02/25 07:46:28;;;;;;;1.70;1.00;;;;;;;26.00;12.31;92568.38;5008579;28;20303;-87
2022/02/25 07:48:54;;;;;;;1.13;0.77;;;;;;;25.82;11.86;92554.91;5008173;28;20049;-88
2022/02/25 07:51:19;;;;;;;1.27;0.70;;;;;;;24.73;12.83;92549.47;4991739;28;20507;-88
2022/02/25 07:53:46;;;;;;;1.02;0.55;;;;;;;22.50;14.81;92566.88;4990603;28;20046;-87
2022/02/25 07:56:11;;;;;;;1.10;0.70;;;;;;;20.49;15.71;92571.78;5007655;28;20042;-87
2022/02/25 07:58:37;;;;;;;3.05;1.45;;;;;;;19.15;17.06;92579.38;4975601;28;20049;-88
2022/02/25 08:01:03;;;;;;;2.28;1.05;;;;;;;18.20;17.74;92563.69;4990558;28;20049;-86
2022/02/25 08:03:28;;;;;;;1.75;0.80;;;;;;;17.71;18.87;92578.72;4989242;28;20109;-87
2022/02/25 08:05:54;;;;;;;2.75;0.93;;;;;;;17.32;18.68;92580.81;4974841;28;20488;-87
2022/02/25 08:08:20;;;;;;;3.08;1.05;;;;;;;16.86;19.33;92580.69;4971803;28;20086;-87
2022/02/25 08:10:47;;;;;;;2.80;1.02;;;;;;;16.72;19.98;92580.94;4988258;28;20103;-87
2022/02/25 08:13:12;;;;;;;1.48;0.82;;;;;;;16.39;19.23;92565.75;4972070;28;20030;-87
2022/02/25 08:15:38;;;;;;;1.50;0.80;;;;;;;16.58;19.34;92588.34;4956518;28;20332;-87
2022/02/25 08:18:07;;;;;;;1.20;0.75;;;;;;;16.44;20.30;92594.63;4972544;28;20401;-86
2022/02/25 08:20:34;;;;;;;2.45;1.10;;;;;;;16.22;20.59;92593.03;4972330;28;20043;-86
2022/02/25 08:23:01;;;;;;;1.60;0.90;;;;;;;16.22;20.54;92602.81;4973328;28;20041;-88
2022/02/25 08:25:28;;;;;;;1.10;0.77;;;;;;;15.78;19.34;92596.91;4955890;28;20062;-88
2022/02/25 08:27:54;;;;;;;1.55;1.00;;;;;;;15.78;19.39;92599.53;4973222;28;20042;-87
2022/02/25 08:30:20;;;;;;;1.00;0.70;;;;;;;15.92;19.65;92605.41;4987758;28;20039;-87
2022/02/25 08:32:48;;;;;;;2.33;1.10;;;;;;;15.81;20.21;92591.00;4971432;28;20038;-87
2022/02/25 08:35:15;;;;;;;0.80;0.70;;;;;;;16.21;20.02;92596.75;4972996;28;20523;-87
2022/02/25 08:37:41;;;;;;;3.45;0.77;;;;;;;16.10;19.25;92589.50;4981920;28;20046;-87
2022/02/25 08:40:08;;;;;;;2.53;0.50;;;;;;;15.80;20.37;92586.81;4991173;28;20038;-87
2022/02/25 08:42:35;;;;;;;0.75;0.50;;;;;;;15.51;19.33;92606.72;4992070;28;20045;-87
2022/02/25 08:45:06;;;;;;;0.40;0.40;;;;;;;15.39;20.03;92593.41;4990835;28;20030;-87
2022/02/25 08:47:32;;;;;;;0.60;0.47;;;;;;;15.19;20.09;92595.59;5003696;28;20335;-87
2022/02/25 08:50:00;;;;;;;0.50;0.40;;;;;;;15.31;20.23;92575.72;4971863;28;20485;-87
2022/02/25 08:52:26;;;;;;;1.10;0.60;;;;;;;15.20;19.36;92580.56;4987540;28;20039;-87
2022/02/25 08:54:52;;;;;;;1.13;0.63;;;;;;;15.82;20.63;92600.47;4972010;28;20037;-89
2022/02/25 08:57:19;;;;;;;0.75;0.52;;;;;;;15.76;19.54;92607.78;4971404;28;20042;-87
2022/02/25 08:59:45;;;;;;;0.68;0.43;;;;;;;14.94;20.01;92593.75;4973660;28;20546;-88
2022/02/25 09:02:12;;;;;;;0.57;0.40;;;;;;;14.86;19.29;92591.88;4985482;28;20042;-87
2022/02/25 09:04:38;;;;;;;0.90;0.45;;;;;;;14.67;20.19;92579.00;4985210;28;20035;-87
2022/02/25 09:07:04;;;;;;;0.30;0.30;;;;;;;15.10;19.59;92615.13;4971158;28;20183;-93
2022/02/25 09:09:29;;;;;;;1.77;0.60;;;;;;;15.16;19.58;92595.44;4964357;28;20092;-86
2022/02/25 09:11:56;;;;;;;0.57;0.40;;;;;;;15.17;19.53;92597.75;4990217;28;20046;-87
2022/02/25 09:14:21;;;;;;;0.93;0.70;;;;;;;14.96;20.36;92602.13;4990665;28;20040;-87
2022/02/25 09:16:47;;;;;;;1.15;0.60;;;;;;;14.56;19.19;92602.22;4990445;28;20129;-87
2022/02/25 09:19:13;;;;;;;1.75;0.90;;;;;;;14.03;20.12;92600.50;4989017;28;20358;-88
2022/02/25 09:21:39;;;;;;;0.52;0.50;;;;;;;14.35;20.84;92596.72;4988696;28;20054;-86
2022/02/25 09:24:09;;;;;;;1.50;0.40;;;;;;;14.42;20.81;92614.72;5007004;28;20561;-89
2022/02/25 09:26:34;;;;;;;0.40;0.40;;;;;;;13.67;19.69;92606.69;5007296;28;20118;-87
2022/02/25 09:29:00;;;;;;;1.35;0.50;;;;;;;13.20;20.64;92614.88;5008213;28;20125;-87
2022/02/25 09:31:27;;;;;;;0.95;0.70;;;;;;;13.21;22.30;92605.91;4983092;28;20113;-86
2022/02/25 09:33:52;;;;;;;1.38;0.60;;;;;;;13.79;21.13;92614.78;4973559;28;20085;-87
2022/02/25 09:36:18;;;;;;;1.13;0.50;;;;;;;14.17;20.64;92619.59;4971863;28;20043;-86
2022/02/25 09:38:44;;;;;;;1.20;0.47;;;;;;;13.64;21.46;92612.53;4958588;28;20488;-86
2022/02/25 09:41:10;;;;;;;0.40;0.40;;;;;;;13.82;20.92;92608.91;5004713;28;20042;-86
2022/02/25 09:43:37;;;;;;;1.27;0.65;;;;;;;14.28;19.82;92631.41;4955047;28;20031;-86
2022/02/25 09:46:06;;;;;;;0.65;0.60;;;;;;;14.13;19.46;92622.06;4988510;28;20038;-87
2022/02/25 09:48:32;;;;;;;2.35;0.65;;;;;;;14.61;19.30;92632.91;4987890;28;20043;-87
2022/02/25 09:50:59;;;;;;;1.00;0.57;;;;;;;13.99;19.89;92639.03;4984111;28;20041;-88
2022/02/25 09:53:25;;;;;;;0.68;0.50;;;;;;;13.24;20.60;92615.03;4990605;28;20062;-86
2022/02/25 09:55:51;;;;;;;1.48;0.70;;;;;;;14.02;20.11;92614.72;4992301;28;20463;-87
2022/02/25 09:58:17;;;;;;;1.02;0.52;;;;;;;14.60;19.69;92637.41;4975195;28;20467;-87
2022/02/25 10:00:43;;;;;;;1.48;0.70;;;;;;;14.43;18.42;92629.44;4975426;28;20070;-86
2022/02/25 10:03:18;;;;;;;1.20;0.70;;;;;;;14.97;19.79;92640.56;4971837;28;20051;-89
2022/02/25 10:05:45;;;;;;;0.90;0.68;;;;;;;15.10;20.00;92626.44;4972316;28;20054;-88
2022/02/25 10:08:20;;;;;;;4.32;0.90;;;;;;;15.56;19.12;92625.03;4955909;28;20039;-88
2022/02/25 10:10:51;;;;;;;1.88;0.88;;;;;;;15.87;18.67;92649.69;4973429;28;20468;-87
2022/02/25 10:13:20;;;;;;;0.82;0.60;;;;;;;15.21;17.72;92640.09;4978970;28;20039;-87
2022/02/25 10:15:48;;;;;;;0.73;0.60;;;;;;;15.41;18.93;92649.25;5008271;28;20502;-86
2022/02/25 10:18:18;;;;;;;1.17;0.63;;;;;;;14.65;18.61;92613.53;4991732;28;20416;-86
2022/02/25 10:20:45;;;;;;;0.43;0.40;;;;;;;15.36;18.46;92607.22;5006388;28;20042;-87
2022/02/25 10:23:28;;;;;;;0.73;0.70;;;;;;;14.72;17.80;92608.59;5006434;28;20038;-90
2022/02/25 10:26:07;;;;;;;0.70;0.55;;;;;;;14.18;18.22;92620.38;4976028;28;20074;-86
2022/02/25 10:28:35;;;;;;;3.05;0.60;;;;;;;13.74;19.91;92607.03;4976235;28;20039;-86
2022/02/25 10:31:38;;;;;;;2.53;0.88;;;;;;;15.01;18.86;92638.09;4959485;28;20041;-87
2022/02/25 10:34:11;;;;;;;1.30;0.80;;;;;;;14.19;19.61;92641.13;4939426;28;20055;-86
2022/02/25 10:36:55;;;;;;;0.65;0.57;;;;;;;14.47;18.59;92633.00;4975688;28;20093;-87
2022/02/25 10:39:29;;;;;;;1.88;0.82;;;;;;;15.04;18.10;92625.06;4959198;28;20121;-87
2022/02/25 10:42:12;;;;;;;1.60;0.90;;;;;;;15.22;18.75;92652.22;4976097;28;20058;-87
2022/02/25 10:44:38;;;;;;;0.77;0.60;;;;;;;15.64;18.83;92643.78;4951067;28;20034;-87
2022/02/25 10:47:21;;;;;;;2.25;0.88;;;;;;;16.44;17.26;92647.47;4977860;28;20046;-86
2022/02/25 10:49:50;;;;;;;0.85;0.60;;;;;;;16.03;17.46;92627.75;4994429;28;20061;-88
2022/02/25 10:52:48;;;;;;;1.02;0.60;;;;;;;15.75;16.97;92645.81;4993284;28;20034;-87
2022/02/25 10:55:19;;;;;;;1.08;0.77;;;;;;;16.20;16.98;92649.91;4985918;28;20061;-88
2022/02/25 10:57:46;;;;;;;0.80;0.60;;;;;;;16.31;17.59;92635.25;4975416;28;20039;-88
2022/02/25 11:00:14;;;;;;;0.90;0.57;;;;;;;16.73;17.58;92632.72;4974107;28;20055;-87
2022/02/25 11:02:46;;;;;;;1.05;0.70;;;;;;;16.84;17.50;92638.41;4958425;28;20061;-87
2022/02/25 11:05:16;;;;;;;4.10;0.60;;;;;;;17.05;17.91;92639.22;4961677;28;20030;-87
2022/02/25 11:07:51;;;;;;;0.63;0.57;;;;;;;17.38;16.33;92596.16;5006220;28;20392;-86
2022/02/25 11:10:20;;;;;;;1.05;0.60;;;;;;;17.07;16.87;92636.25;5014008;28;20041;-87
2022/02/25 11:12:49;;;;;;;1.17;0.98;;;;;;;16.23;16.19;92641.31;5010197;28;20084;-87
2022/02/25 11:15:22;;;;;;;3.58;0.75;;;;;;;15.72;16.83;92627.97;4978072;28;20046;-88
2022/02/25 11:17:49;;;;;;;2.17;0.68;;;;;;;16.08;17.90;92624.16;4991238;28;20023;-86
2022/02/25 11:20:22;;;;;;;4.68;0.80;;;;;;;16.00;16.13;92644.19;4990402;28;20589;-91
2022/02/25 11:22:53;;;;;;;0.50;0.47;;;;;;;15.60;16.55;92647.06;4991778;28;20035;-88
2022/02/25 11:25:19;;;;;;;0.45;0.45;;;;;;;15.16;17.11;92619.94;4962244;28;20038;-87
2022/02/25 11:27:46;;;;;;;0.65;0.50;;;;;;;15.38;17.24;92624.28;4977928;28;20038;-87
2022/02/25 11:30:14;;;;;;;0.50;0.50;;;;;;;14.31;16.50;92624.75;5006206;28;20034;-87
2022/02/25 11:32:46;;;;;;;0.73;0.60;;;;;;;14.31;18.13;92635.28;4977926;28;20121;-87
2022/02/25 11:35:19;;;;;;;0.88;0.57;;;;;;;13.67;18.90;92643.53;4982035;28;20031;-87
2022/02/25 11:37:51;;;;;;;0.40;0.40;;;;;;;13.30;16.59;92614.66;4974183;28;20491;-88
2022/02/25 11:40:37;;;;;;;1.40;0.68;;;;;;;13.63;17.14;92637.31;4973243;28;20046;-88
2022/02/25 11:43:09;;;;;;;1.63;0.50;;;;;;;13.92;17.47;92608.66;4976512;28;20044;-88
2022/02/25 11:45:50;;;;;;;1.02;0.50;;;;;;;14.66;16.70;92620.38;4991386;28;20046;-87
2022/02/25 11:48:43;;;;;;;0.90;0.60;;;;;;;15.12;18.34;92636.69;4989081;28;20045;-89
2022/02/25 11:51:23;;;;;;;0.45;0.45;;;;;;;15.62;16.45;92600.00;4977749;28;20100;-89
2022/02/25 11:54:21;;;;;;;0.80;0.45;;;;;;;15.93;16.09;92625.44;4978771;28;20031;-87
2022/02/25 11:56:55;;;;;;;0.75;0.50;;;;;;;16.14;16.60;92627.38;4978424;28;20027;-89
2022/02/25 11:59:33;;;;;;;1.45;0.70;;;;;;;16.26;16.12;92603.72;4992401;28;20030;-87
2022/02/25 12:02:18;;;;;;;0.50;0.50;;;;;;;16.36;15.59;92621.84;4968961;28;20057;-88
2022/02/25 12:04:45;;;;;;;0.32;0.30;;;;;;;16.31;15.37;92615.97;4990482;28;20053;-88
2022/02/25 12:07:16;;;;;;;0.50;0.50;;;;;;;15.40;16.17;92626.59;4971388;28;20130;-88
2022/02/25 12:09:49;;;;;;;1.55;0.60;;;;;;;14.62;15.52;92626.56;4977768;28;20043;-87
2022/02/25 12:12:23;;;;;;;0.80;0.50;;;;;;;13.53;17.28;92633.84;4996407;28;20120;-85
2022/02/25 12:15:34;;;;;;;0.80;0.45;;;;;;;13.37;18.06;92624.75;4976357;28;20113;-87
2022/02/25 12:18:12;;;;;;;2.53;0.63;;;;;;;12.47;17.37;92572.09;4944126;28;20145;-87
2022/02/25 12:20:44;;;;;;;1.30;0.70;;;;;;;13.84;17.46;92601.50;4971637;28;20038;-85
2022/02/25 12:23:33;;;;;;;1.25;0.60;;;;;;;14.12;16.23;92572.34;4978880;28;20031;-85
2022/02/25 12:26:04;;;;;;;1.25;0.80;;;;;;;14.61;17.00;92591.53;4984109;28;20038;-85
2022/02/25 12:28:47;;;;;;;1.08;0.77;;;;;;;14.19;16.08;92606.91;4991861;28;20045;-86
2022/02/25 12:31:22;;;;;;;3.25;0.63;;;;;;;12.87;15.23;92559.91;4980589;28;20030;-86
2022/02/25 12:33:56;;;;;;;1.27;0.60;;;;;;;13.25;16.45;92569.28;4985433;28;20035;-86
2022/02/25 12:36:28;;;;;;;0.70;0.60;;;;;;;14.10;16.22;92632.44;4990387;28;20034;-86
2022/02/25 12:39:06;;;;;;;0.77;0.50;;;;;;;13.74;15.36;92613.06;4968728;28;20085;-85
2022/02/25 12:41:37;;;;;;;1.83;0.70;;;;;;;13.80;16.39;92578.72;4988873;28;20050;-88
2022/02/25 12:44:08;;;;;;;0.60;0.60;;;;;;;13.95;15.51;92580.97;4991825;28;20026;-86
2022/02/25 12:46:37;;;;;;;1.33;0.70;;;;;;;13.86;15.84;92582.78;4986336;28;20027;-88
2022/02/25 12:49:08;;;;;;;2.60;0.60;;;;;;;14.50;17.09;92574.44;4971718;28;20519;-86